createdAt,value
2023-02-11T00:01:37.691Z,15.95
2023-02-11T00:04:07.702Z,17.08
2023-02-11T00:06:36.958Z,13.73
2023-02-11T00:09:06.437Z,10.40
2023-02-11T00:11:35.122Z,13.07
2023-02-11T00:14:05.629Z,12.07
2023-02-11T00:16:37.985Z,18.83
2023-02-11T00:19:06.842Z,11.95
2023-02-11T00:21:35.966Z,12.90
2023-02-11T00:24:04.624Z,15.80
2023-02-11T00:26:36.437Z,16.67
2023-02-11T00:29:05.932Z,14.60
2023-02-11T00:31:36.008Z,11.10
2023-02-11T00:34:07.186Z,14.75
2023-02-11T00:36:35.618Z,11.30
2023-02-11T00:39:04.112Z,14.48
2023-02-11T00:41:32.608Z,7.50
2023-02-11T00:44:01.005Z,13.88
2023-02-11T00:46:29.442Z,11.77
2023-02-11T00:48:59.328Z,14.35
2023-02-11T00:51:28.509Z,15.10
2023-02-11T00:53:57.874Z,18.00
2023-02-11T00:56:26.574Z,14.50
2023-02-11T00:58:55.234Z,11.60
2023-02-11T01:01:23.768Z,11.43
2023-02-11T01:03:53.646Z,10.38
2023-02-11T01:06:26.009Z,13.18
2023-02-11T01:08:54.497Z,10.90
2023-02-11T01:11:23.257Z,8.35
2023-02-11T01:13:52.270Z,12.52
2023-02-11T01:16:22.806Z,8.88
2023-02-11T01:18:51.321Z,12.60
2023-02-11T01:21:19.876Z,10.23
2023-02-11T01:23:49.664Z,7.78
2023-02-11T01:26:20.688Z,10.55
2023-02-11T01:28:49.494Z,16.05
2023-02-11T01:31:17.960Z,12.40
2023-02-11T01:33:47.081Z,9.60
2023-02-11T01:36:15.715Z,8.95
2023-02-11T01:38:46.981Z,9.00
2023-02-11T01:41:16.841Z,11.50
2023-02-11T01:43:52.466Z,9.32
2023-02-11T01:46:34.956Z,9.35
2023-02-11T01:49:07.067Z,14.75
2023-02-11T01:51:38.723Z,11.77
2023-02-11T01:54:25.831Z,10.85
2023-02-11T01:57:28.873Z,7.32
2023-02-11T02:00:06.090Z,7.55
2023-02-11T02:05:26.717Z,9.10
2023-02-11T02:08:00.905Z,8.93
2023-02-11T02:10:30.554Z,6.32
2023-02-11T02:13:02.821Z,8.10
2023-02-11T02:15:34.561Z,6.43
2023-02-11T02:18:26.850Z,9.25
2023-02-11T02:21:27.827Z,7.18
2023-02-11T02:24:28.768Z,8.75
2023-02-11T02:27:40.452Z,8.30
2023-02-11T02:30:42.694Z,4.68
2023-02-11T02:33:32.515Z,9.90
2023-02-11T02:36:09.814Z,8.48
2023-02-11T02:38:43.514Z,6.75
2023-02-11T02:41:15.771Z,10.07
2023-02-11T02:43:47.108Z,8.98
2023-02-11T02:46:18.278Z,8.77
2023-02-11T02:48:53.009Z,10.60
2023-02-11T02:51:34.257Z,12.52
2023-02-11T02:54:22.062Z,6.18
2023-02-11T02:56:54.959Z,9.85
2023-02-11T02:59:43.724Z,11.60
2023-02-11T03:02:16.587Z,7.47
2023-02-11T03:04:51.680Z,9.85
2023-02-11T03:07:26.469Z,5.07
2023-02-11T03:09:59.552Z,7.40
2023-02-11T03:12:29.681Z,7.53
2023-02-11T03:14:58.337Z,7.05
2023-02-11T03:17:27.740Z,8.35
2023-02-11T03:19:59.077Z,6.53
2023-02-11T03:22:32.071Z,5.47
2023-02-11T03:25:02.270Z,5.63
2023-02-11T03:27:36.707Z,6.82
2023-02-11T03:30:09.534Z,4.88
2023-02-11T03:32:40.514Z,5.28
2023-02-11T03:35:13.375Z,6.40
2023-02-11T03:37:43.934Z,4.38
2023-02-11T03:40:15.099Z,5.22
2023-02-11T03:42:55.013Z,7.22
2023-02-11T03:45:36.804Z,4.68
2023-02-11T03:48:09.397Z,5.28
2023-02-11T03:50:40.192Z,10.05
2023-02-11T03:53:09.850Z,3.50
2023-02-11T03:55:40.829Z,5.22
2023-02-11T03:58:10.968Z,8.82
2023-02-11T04:00:44.024Z,3.78
2023-02-11T04:03:13.722Z,4.88
2023-02-11T04:05:43.737Z,4.75
2023-02-11T04:08:14.912Z,4.95
2023-02-11T04:10:43.338Z,6.68
2023-02-11T04:13:11.843Z,5.32
2023-02-11T04:15:40.254Z,4.53
2023-02-11T04:18:08.684Z,3.88
2023-02-11T04:20:37.106Z,4.47
2023-02-11T04:23:07.100Z,7.53
2023-02-11T04:25:35.571Z,6.47
2023-02-11T04:28:04.134Z,6.68
2023-02-11T04:30:32.674Z,6.68
2023-02-11T04:33:01.120Z,7.03
2023-02-11T04:35:29.616Z,9.95
2023-02-11T04:37:58.048Z,7.57
2023-02-11T04:40:27.813Z,6.35
2023-02-11T04:42:56.342Z,9.88
2023-02-11T04:45:24.988Z,10.43
2023-02-11T04:47:53.417Z,4.38
2023-02-11T04:50:21.946Z,4.45
2023-02-11T04:52:50.409Z,4.30
2023-02-11T04:55:19.085Z,6.40
2023-02-11T04:57:48.877Z,6.45
2023-02-11T05:00:18.149Z,6.32
2023-02-11T05:02:46.604Z,7.13
2023-02-11T05:05:22.008Z,6.68
2023-02-11T05:07:53.377Z,6.75
2023-02-11T05:10:21.761Z,7.40
2023-02-11T05:12:55.998Z,8.07
2023-02-11T05:15:24.656Z,6.45
2023-02-11T05:17:53.302Z,8.60
2023-02-11T05:20:26.283Z,4.82
2023-02-11T05:22:56.782Z,3.20
2023-02-11T05:25:25.201Z,5.18
2023-02-11T05:27:57.390Z,4.18
2023-02-11T05:30:28.401Z,3.53
2023-02-11T05:32:56.903Z,4.75
2023-02-11T05:35:25.387Z,7.15
2023-02-11T05:37:54.346Z,7.25
2023-02-11T05:40:23.339Z,4.63
2023-02-11T05:42:55.645Z,4.45
2023-02-11T05:55:06.227Z,6.97
2023-02-11T05:57:36.242Z,6.25
2023-02-11T06:00:06.374Z,8.65
2023-02-11T06:02:41.591Z,7.00
2023-02-11T06:05:10.460Z,5.90
2023-02-11T06:07:41.798Z,6.70
2023-02-11T06:10:14.681Z,6.40
2023-02-11T06:12:43.069Z,8.10
2023-02-11T06:15:11.675Z,5.75
2023-02-11T06:17:40.170Z,3.90
2023-02-11T06:20:13.944Z,5.68
2023-02-11T06:22:43.405Z,5.68
2023-02-11T06:25:13.516Z,4.40
2023-02-11T06:27:42.101Z,5.78
2023-02-11T06:30:14.557Z,5.75
2023-02-11T06:32:46.315Z,4.32
2023-02-11T06:35:15.589Z,6.70
2023-02-11T06:37:44.239Z,8.23
2023-02-11T06:40:17.738Z,4.75
2023-02-11T06:42:46.153Z,5.57
2023-02-11T06:45:16.738Z,4.95
2023-02-11T06:47:45.201Z,7.00
2023-02-11T06:50:14.938Z,5.30
2023-02-11T06:52:44.929Z,5.60
2023-02-11T06:55:13.361Z,6.90
2023-02-11T06:57:45.718Z,6.72
2023-02-11T07:00:15.521Z,6.28
2023-02-11T07:02:44.118Z,8.60
2023-02-11T07:05:14.671Z,7.07
2023-02-11T07:07:43.189Z,6.15
2023-02-11T07:10:14.421Z,7.30
2023-02-11T07:12:46.181Z,6.53
2023-02-11T07:15:14.558Z,10.02
2023-02-11T07:17:42.845Z,7.90
2023-02-11T07:20:15.204Z,9.30
2023-02-11T07:22:43.722Z,7.32
2023-02-11T07:25:15.071Z,7.70
2023-02-11T07:27:47.623Z,8.02
2023-02-11T07:30:16.755Z,9.52
2023-02-11T07:32:45.172Z,6.65
2023-02-11T07:35:14.953Z,5.53
2023-02-11T07:37:43.516Z,8.43
2023-02-11T07:40:13.666Z,7.47
2023-02-11T07:42:45.250Z,9.98
2023-02-11T07:45:15.092Z,16.75
2023-02-11T07:47:43.977Z,8.32
2023-02-11T07:50:12.464Z,8.88
2023-02-11T07:52:40.836Z,9.25
2023-02-11T07:55:10.403Z,8.55
2023-02-11T07:57:39.134Z,8.43
2023-02-11T08:00:08.445Z,7.15
2023-02-11T08:02:41.234Z,8.18
2023-02-11T08:05:09.967Z,9.40
2023-02-11T08:07:41.057Z,6.53
2023-02-11T08:10:09.889Z,8.07
2023-02-11T08:12:41.270Z,7.47
2023-02-11T08:15:10.766Z,5.88
2023-02-11T08:17:40.627Z,8.68
2023-02-11T08:20:13.625Z,12.80
2023-02-11T08:22:42.229Z,9.55
2023-02-11T08:25:10.690Z,10.10
2023-02-11T08:27:41.093Z,11.73
2023-02-11T08:30:13.792Z,9.57
2023-02-11T08:32:49.589Z,7.85
2023-02-11T08:35:18.266Z,13.32
2023-02-11T08:37:46.793Z,14.95
2023-02-11T08:40:15.220Z,11.07
2023-02-11T08:42:43.685Z,9.02
2023-02-11T08:45:12.658Z,9.25
2023-02-11T08:47:41.243Z,12.13
2023-02-11T08:50:11.404Z,13.38
2023-02-11T08:52:43.210Z,14.10
2023-02-11T08:55:14.709Z,12.15
2023-02-11T08:57:43.256Z,12.43
2023-02-11T09:00:12.988Z,10.63
2023-02-11T09:02:41.446Z,10.57
2023-02-11T09:05:11.772Z,8.90
2023-02-11T09:07:40.255Z,10.25
2023-02-11T09:10:09.200Z,9.32
2023-02-11T09:12:37.738Z,11.35
2023-02-11T09:15:06.805Z,8.10
2023-02-11T09:17:39.465Z,12.93
2023-02-11T09:20:10.773Z,10.15
2023-02-11T09:22:41.179Z,13.75
2023-02-11T09:25:10.041Z,10.20
2023-02-11T09:27:38.558Z,10.50
2023-02-11T09:30:10.525Z,10.85
2023-02-11T09:32:39.101Z,9.63
2023-02-11T09:35:10.866Z,10.15
2023-02-11T09:37:40.685Z,8.15
2023-02-11T09:40:10.010Z,8.73
2023-02-11T09:42:47.063Z,11.25
2023-02-11T09:45:20.473Z,12.90
2023-02-11T09:47:51.400Z,12.82
2023-02-11T09:50:27.957Z,8.10
2023-02-11T09:53:01.642Z,9.60
2023-02-11T09:55:38.847Z,9.90
2023-02-11T09:58:16.279Z,9.88
2023-02-11T10:00:54.201Z,12.13
2023-02-11T10:03:48.657Z,17.27
2023-02-11T10:06:29.937Z,9.50
2023-02-11T10:09:06.942Z,7.25
2023-02-11T10:11:42.804Z,10.75
2023-02-11T10:14:24.182Z,10.82
2023-02-11T10:17:06.495Z,9.60
2023-02-11T10:19:47.782Z,13.40
2023-02-11T10:22:19.785Z,12.57
2023-02-11T10:24:53.708Z,12.98
2023-02-11T10:27:23.285Z,11.75
2023-02-11T10:29:55.036Z,8.45
2023-02-11T10:32:33.334Z,12.13
2023-02-11T10:35:04.047Z,9.50
2023-02-11T10:37:32.820Z,9.13
2023-02-11T10:40:02.576Z,13.48
2023-02-11T10:42:34.498Z,9.43
2023-02-11T10:45:08.122Z,13.68
2023-02-11T10:47:38.308Z,9.75
2023-02-11T10:50:20.798Z,12.25
2023-02-11T10:52:49.296Z,7.80
2023-02-11T10:55:24.402Z,10.88
2023-02-11T10:57:57.630Z,12.32
2023-02-11T11:00:39.905Z,13.50
2023-02-11T11:03:19.625Z,9.40
2023-02-11T11:05:50.465Z,6.90
2023-02-11T11:08:21.864Z,10.40
2023-02-11T11:11:03.894Z,10.43
2023-02-11T11:13:34.041Z,9.02
2023-02-11T11:16:19.744Z,9.60
2023-02-11T11:18:49.778Z,10.13
2023-02-11T11:21:23.214Z,11.38
2023-02-11T11:23:57.574Z,12.43
2023-02-11T11:26:28.830Z,11.48
2023-02-11T11:29:01.843Z,9.52
2023-02-11T11:31:34.639Z,10.27
2023-02-11T11:34:23.569Z,10.32
2023-02-11T11:36:56.225Z,12.25
2023-02-11T11:39:26.306Z,13.95
2023-02-11T11:42:00.842Z,16.73
2023-02-11T11:44:32.348Z,11.55
2023-02-11T11:47:23.797Z,8.85
2023-02-11T11:50:10.771Z,12.98
2023-02-11T11:52:45.558Z,14.02
2023-02-11T11:57:46.818Z,11.43
2023-02-11T12:00:17.596Z,10.65
2023-02-11T12:03:30.909Z,10.38
2023-02-11T12:06:14.069Z,10.75
2023-02-11T12:08:47.328Z,9.82
2023-02-11T12:11:21.714Z,12.32
2023-02-11T12:14:14.728Z,11.60
2023-02-11T12:16:51.930Z,9.90
2023-02-11T12:19:35.757Z,14.52
2023-02-11T12:22:11.789Z,13.88
2023-02-11T12:24:57.271Z,11.95
2023-02-11T12:27:41.743Z,10.93
2023-02-11T12:30:20.514Z,10.77
2023-02-11T12:33:00.002Z,9.95
2023-02-11T12:35:41.226Z,9.52
2023-02-11T12:38:23.048Z,13.13
2023-02-11T12:41:02.890Z,11.38
2023-02-11T12:43:35.960Z,12.15
2023-02-11T12:46:29.648Z,12.02
2023-02-11T12:49:13.230Z,12.68
2023-02-11T12:51:52.721Z,13.20
2023-02-11T12:54:30.211Z,9.68
2023-02-11T12:57:03.421Z,12.50
2023-02-11T12:59:39.861Z,11.88
2023-02-11T13:02:17.474Z,17.33
2023-02-11T13:04:49.326Z,11.85
2023-02-11T13:07:21.392Z,14.27
2023-02-11T13:09:53.984Z,14.85
2023-02-11T13:12:40.210Z,17.60
2023-02-11T13:15:14.085Z,15.63
2023-02-11T13:17:50.980Z,13.90
2023-02-11T13:20:26.326Z,17.50
2023-02-11T13:23:01.335Z,12.35
2023-02-11T13:25:33.820Z,12.65
2023-02-11T13:28:08.941Z,14.00
2023-02-11T13:30:40.821Z,13.95
2023-02-11T13:33:33.971Z,15.60
2023-02-11T13:36:22.656Z,17.25
2023-02-11T13:39:16.772Z,15.15
2023-02-11T13:41:52.186Z,16.73
2023-02-11T13:44:24.191Z,15.38
2023-02-11T13:47:00.526Z,12.60
2023-02-11T13:49:36.868Z,18.98
2023-02-11T13:52:08.006Z,15.68
2023-02-11T13:54:42.629Z,16.83
2023-02-11T13:57:23.833Z,20.92
2023-02-11T13:59:53.054Z,17.23
2023-02-11T14:02:50.960Z,18.92
2023-02-11T14:05:47.067Z,15.45
2023-02-11T14:08:39.598Z,17.38
2023-02-11T14:11:44.661Z,19.88
2023-02-11T14:14:24.101Z,19.42
2023-02-11T14:17:46.929Z,18.45
2023-02-11T14:20:41.929Z,17.73
2023-02-11T14:23:23.587Z,15.07
2023-02-11T14:26:21.743Z,16.08
2023-02-11T14:28:55.815Z,16.35
2023-02-11T14:31:32.883Z,20.63
2023-02-11T14:34:15.812Z,21.58
2023-02-11T14:37:00.095Z,19.60
2023-02-11T14:39:43.607Z,18.20
2023-02-11T14:42:19.100Z,16.08
2023-02-11T14:44:48.895Z,15.63
2023-02-11T14:47:20.593Z,24.60
2023-02-11T14:49:50.395Z,15.32
2023-02-11T14:52:28.270Z,18.05
2023-02-11T14:55:08.688Z,17.95
2023-02-11T14:57:38.675Z,20.35
2023-02-11T15:00:17.808Z,23.52
2023-02-11T15:02:46.365Z,23.25
2023-02-11T15:05:19.250Z,26.63
2023-02-11T15:07:51.383Z,24.25
2023-02-11T15:10:24.485Z,20.42
2023-02-11T15:12:54.773Z,18.67
2023-02-11T15:15:23.479Z,15.60
2023-02-11T15:17:52.235Z,17.10
2023-02-11T15:20:25.988Z,17.98
2023-02-11T15:23:00.278Z,13.30
2023-02-11T15:25:30.721Z,17.05
2023-02-11T15:28:00.647Z,15.80
2023-02-11T15:30:32.302Z,19.65
2023-02-11T15:33:03.722Z,20.05
2023-02-11T15:35:36.846Z,18.08
2023-02-11T15:38:07.134Z,19.13
2023-02-11T15:40:37.895Z,19.00
2023-02-11T15:43:08.668Z,14.65
2023-02-11T15:45:39.139Z,16.55
2023-02-11T15:48:10.888Z,23.15
2023-02-11T15:50:40.975Z,15.55
2023-02-11T15:53:24.263Z,18.77
2023-02-11T15:55:56.945Z,15.13
2023-02-11T15:58:25.619Z,20.00
2023-02-11T16:00:59.870Z,13.77
2023-02-11T16:03:32.747Z,17.42
2023-02-11T16:06:20.052Z,15.05
2023-02-11T16:09:01.281Z,24.05
2023-02-11T16:11:32.313Z,13.30
2023-02-11T16:14:05.159Z,15.85
2023-02-11T16:16:35.720Z,14.20
2023-02-11T16:19:06.628Z,13.70
2023-02-11T16:21:39.359Z,13.93
2023-02-11T16:24:20.307Z,20.38
2023-02-11T16:26:50.349Z,17.65
2023-02-11T16:29:20.389Z,10.55
2023-02-11T16:31:51.025Z,15.18
2023-02-11T16:34:22.586Z,16.80
2023-02-11T16:36:51.731Z,12.95
2023-02-11T16:39:22.941Z,14.45
2023-02-11T16:41:52.586Z,16.58
2023-02-11T16:44:22.546Z,19.02
2023-02-11T16:46:50.968Z,13.60
2023-02-11T16:49:26.026Z,13.57
2023-02-11T16:51:57.644Z,17.05
2023-02-11T16:54:30.835Z,19.30
2023-02-11T16:57:02.402Z,20.17
2023-02-11T16:59:30.945Z,17.30
2023-02-11T17:01:59.828Z,9.95
2023-02-11T17:04:30.930Z,16.52
2023-02-11T17:06:59.369Z,11.77
2023-02-11T17:09:31.115Z,15.88
2023-02-11T17:12:00.327Z,16.15
2023-02-11T17:14:31.930Z,15.18
2023-02-11T17:17:00.356Z,17.30
2023-02-11T17:19:34.212Z,11.93
2023-02-11T17:22:02.711Z,13.32
2023-02-11T17:24:32.564Z,15.65
2023-02-11T17:27:01.077Z,14.00
2023-02-11T17:29:29.669Z,12.40
2023-02-11T17:31:59.185Z,17.48
2023-02-11T17:34:32.435Z,13.45
2023-02-11T17:37:03.292Z,13.55
2023-02-11T17:39:33.044Z,13.70
2023-02-11T17:42:01.885Z,14.82
2023-02-11T17:44:30.365Z,13.82
2023-02-11T17:46:58.784Z,15.00
2023-02-11T17:49:27.674Z,12.20
2023-02-11T17:51:56.094Z,17.27
2023-02-11T17:54:25.120Z,16.85
2023-02-11T17:56:58.094Z,11.68
2023-02-11T17:59:31.806Z,12.35
2023-02-11T18:02:00.375Z,13.02
2023-02-11T18:04:28.957Z,10.73
2023-02-11T18:06:57.775Z,8.68
2023-02-11T18:09:26.497Z,10.68
2023-02-11T18:11:56.684Z,12.98
2023-02-11T18:14:25.249Z,13.27
2023-02-11T18:16:53.878Z,9.65
2023-02-11T18:19:22.603Z,11.88
2023-02-11T18:21:51.189Z,8.57
2023-02-11T18:24:21.066Z,10.88
2023-02-11T18:26:49.510Z,11.73
2023-02-11T18:29:19.475Z,13.93
2023-02-11T18:31:49.818Z,11.30
2023-02-11T18:34:18.269Z,12.45
2023-02-11T18:36:47.872Z,13.65
2023-02-11T18:39:16.367Z,14.35
2023-02-11T18:41:44.832Z,11.32
2023-02-11T18:44:14.329Z,16.60
2023-02-11T18:46:44.061Z,15.63
2023-02-11T18:49:15.006Z,13.00
2023-02-11T18:51:44.409Z,11.88
2023-02-11T18:54:15.924Z,9.90
2023-02-11T18:56:44.396Z,11.15
2023-02-11T18:59:13.169Z,12.50
2023-02-11T19:01:46.868Z,9.70
2023-02-11T19:04:20.070Z,8.15
2023-02-11T19:06:49.912Z,11.40
2023-02-11T19:09:20.273Z,14.13
2023-02-11T19:11:52.326Z,14.38
2023-02-11T19:14:23.162Z,12.15
2023-02-11T19:16:55.556Z,13.57
2023-02-11T19:19:25.588Z,12.10
2023-02-11T19:21:54.069Z,12.30
2023-02-11T19:24:23.045Z,10.82
2023-02-11T19:26:52.751Z,13.75
2023-02-11T19:29:21.413Z,9.20
2023-02-11T19:31:50.244Z,6.38
2023-02-11T19:34:23.322Z,9.60
2023-02-11T19:36:53.500Z,11.00
2023-02-11T19:39:26.460Z,12.25
2023-02-11T19:41:54.890Z,13.77
2023-02-11T19:44:23.534Z,12.48
2023-02-11T19:46:53.445Z,13.55
2023-02-11T19:49:26.007Z,9.48
2023-02-11T19:51:55.804Z,10.05
2023-02-11T19:54:26.418Z,9.65
2023-02-11T19:56:54.984Z,8.90
2023-02-11T19:59:24.412Z,12.30
2023-02-11T20:01:55.658Z,9.65
2023-02-11T20:04:25.666Z,9.23
2023-02-11T20:06:58.147Z,10.25
2023-02-11T20:09:29.152Z,9.93
2023-02-11T20:11:57.738Z,11.07
2023-02-11T20:14:27.937Z,10.75
2023-02-11T20:16:56.753Z,10.70
2023-02-11T20:19:30.775Z,11.27
2023-02-11T20:21:59.342Z,9.40
2023-02-11T20:24:27.733Z,13.80
2023-02-11T20:26:56.607Z,9.60
2023-02-11T20:29:26.041Z,9.88
2023-02-11T20:31:55.426Z,9.65
2023-02-11T20:34:25.260Z,11.05
2023-02-11T20:37:00.793Z,10.15
2023-02-11T20:39:29.288Z,8.40
2023-02-11T20:41:58.289Z,10.93
2023-02-11T20:44:26.764Z,10.95
2023-02-11T20:46:58.825Z,7.40
2023-02-11T20:49:28.405Z,9.93
2023-02-11T20:52:00.279Z,9.98
2023-02-11T20:54:28.705Z,9.65
2023-02-11T20:56:58.374Z,11.35
2023-02-11T20:59:27.864Z,9.52
2023-02-11T21:01:57.757Z,8.43
2023-02-11T21:04:28.149Z,8.85
2023-02-11T21:07:01.984Z,10.50
2023-02-11T21:09:32.186Z,7.03
2023-02-11T21:12:00.751Z,8.35
2023-02-11T21:14:30.317Z,10.57
2023-02-11T21:17:01.040Z,9.73
2023-02-11T21:19:29.577Z,12.07
2023-02-11T21:22:00.811Z,8.90
2023-02-11T21:24:32.028Z,9.88
2023-02-11T21:27:00.792Z,9.73
2023-02-11T21:29:29.347Z,10.23
2023-02-11T21:31:57.797Z,10.27
2023-02-11T21:34:28.526Z,10.98
2023-02-11T21:36:58.347Z,9.30
2023-02-11T21:39:26.788Z,10.38
2023-02-11T21:41:56.175Z,10.57
2023-02-11T21:44:24.799Z,8.20
2023-02-11T21:46:54.367Z,10.50
2023-02-11T21:49:23.781Z,7.80
2023-02-11T21:51:52.169Z,10.43
2023-02-11T21:54:24.050Z,9.20
2023-02-11T21:56:52.825Z,9.85
2023-02-11T21:59:21.190Z,8.43
2023-02-11T22:01:52.190Z,10.32
2023-02-11T22:04:20.695Z,8.13
2023-02-11T22:06:49.130Z,8.52
2023-02-11T22:09:17.612Z,8.55
2023-02-11T22:11:49.364Z,10.73
2023-02-11T22:14:20.464Z,9.38
2023-02-11T22:16:48.966Z,9.23
2023-02-11T22:19:19.512Z,8.25
2023-02-11T22:21:48.010Z,9.13
2023-02-11T22:24:16.460Z,7.65
2023-02-11T22:26:45.013Z,8.77
2023-02-11T22:29:14.871Z,9.70
2023-02-11T22:31:45.292Z,8.18
2023-02-11T22:34:13.919Z,8.73
2023-02-11T22:36:44.762Z,8.98
2023-02-11T22:39:14.712Z,10.82
2023-02-11T22:41:44.380Z,9.00
2023-02-11T22:44:16.398Z,9.38
2023-02-11T22:46:46.427Z,9.18
2023-02-11T22:49:16.792Z,9.63
2023-02-11T22:51:45.504Z,10.43
2023-02-11T22:54:16.688Z,9.07
2023-02-11T22:56:48.184Z,10.10
2023-02-11T22:59:19.596Z,11.32
2023-02-11T23:01:48.358Z,9.23
2023-02-11T23:04:19.355Z,8.32
2023-02-11T23:06:49.499Z,9.75
2023-02-11T23:09:20.396Z,8.10
2023-02-11T23:11:49.999Z,8.40
2023-02-11T23:14:21.169Z,8.15
2023-02-11T23:16:51.443Z,8.30
2023-02-11T23:19:20.376Z,7.18
2023-02-11T23:21:51.972Z,6.43
2023-02-11T23:24:20.548Z,8.73
2023-02-11T23:26:49.122Z,7.63
2023-02-11T23:29:17.687Z,8.13
2023-02-11T23:31:47.871Z,7.32
2023-02-11T23:34:20.456Z,6.13
2023-02-11T23:36:49.929Z,7.00
2023-02-11T23:39:18.349Z,8.93
2023-02-11T23:41:47.064Z,6.95
2023-02-11T23:44:16.570Z,6.30
2023-02-11T23:46:44.953Z,6.40
2023-02-11T23:49:15.636Z,6.07
2023-02-11T23:51:46.642Z,5.25
2023-02-11T23:54:16.076Z,5.75
2023-02-11T23:56:46.184Z,4.55
2023-02-11T23:59:17.180Z,4.70
